createdAt,value
2019-02-23T00:07:36.192Z,73.40
2019-02-23T00:17:41.684Z,73.60
2019-02-23T00:27:47.156Z,73.00
2019-02-23T00:37:52.647Z,73.00
2019-02-23T00:47:58.200Z,74.10
2019-02-23T00:58:26.085Z,75.90
2019-02-23T01:08:35.637Z,75.30
2019-02-23T01:18:41.199Z,78.00
2019-02-23T01:28:46.689Z,79.70
2019-02-23T01:38:52.271Z,79.90
2019-02-23T01:48:57.832Z,80.00
2019-02-23T01:59:04.323Z,80.70
2019-02-23T02:09:10.479Z,81.00
2019-02-23T02:19:16.665Z,82.70
2019-02-23T02:29:22.165Z,81.90
2019-02-23T02:39:27.639Z,83.00
2019-02-23T02:49:33.113Z,83.00
2019-02-23T02:59:38.641Z,83.40
2019-02-23T03:09:44.193Z,83.90
2019-02-23T03:19:49.761Z,82.90
2019-02-23T03:29:55.270Z,83.30
2019-02-23T03:40:00.767Z,84.10
2019-02-23T03:50:07.752Z,84.90
2019-02-23T04:00:13.312Z,84.40
2019-02-23T04:10:18.879Z,85.20
2019-02-23T04:20:24.378Z,85.30
2019-02-23T04:30:29.889Z,86.50
2019-02-23T04:40:35.426Z,85.80
2019-02-23T04:50:42.168Z,85.90
2019-02-23T05:00:47.681Z,87.00
2019-02-23T05:10:53.234Z,87.20
2019-02-23T05:20:58.712Z,86.90
2019-02-23T05:31:04.310Z,87.00
2019-02-23T05:41:09.843Z,88.40
2019-02-23T05:51:15.415Z,86.60
2019-02-23T06:01:20.888Z,86.20
2019-02-23T06:11:26.365Z,85.10
2019-02-23T06:21:31.887Z,84.90
2019-02-23T06:31:37.783Z,80.80
2019-02-23T06:41:43.423Z,81.40
2019-02-23T06:51:48.929Z,82.30
2019-02-23T07:01:56.645Z,82.30
2019-02-23T07:12:01.721Z,80.60
2019-02-23T07:22:15.094Z,79.70
2019-02-23T07:32:14.327Z,79.70
2019-02-23T07:42:19.795Z,77.80
2019-02-23T07:52:26.635Z,76.10
2019-02-23T08:02:32.400Z,76.50
2019-02-23T08:12:37.930Z,72.90
2019-02-23T08:22:43.413Z,70.30
2019-02-23T08:32:50.034Z,70.40
2019-02-23T08:42:55.533Z,69.10
2019-02-23T08:53:00.996Z,69.00
2019-02-23T09:03:06.500Z,67.60
2019-02-23T09:13:11.980Z,67.60
2019-02-23T09:23:17.488Z,65.00
2019-02-23T09:33:23.774Z,63.40
2019-02-23T09:43:30.261Z,61.00
2019-02-23T09:53:35.771Z,59.20
2019-02-23T10:03:41.346Z,55.20
2019-02-23T10:13:46.942Z,54.50
2019-02-23T10:23:52.386Z,53.60
2019-02-23T10:33:57.918Z,52.70
2019-02-23T10:44:03.395Z,51.70
2019-02-23T10:54:08.975Z,49.20
2019-02-23T11:04:14.612Z,49.70
2019-02-23T11:14:20.157Z,49.70
2019-02-23T11:24:25.831Z,48.00
2019-02-23T11:34:31.274Z,46.40
2019-02-23T11:44:37.897Z,47.80
2019-02-23T11:54:44.177Z,43.90
2019-02-23T12:04:49.916Z,47.00
2019-02-23T12:14:55.486Z,44.70
2019-02-23T12:25:00.954Z,47.70
2019-02-23T12:35:09.235Z,47.00
2019-02-23T12:45:15.006Z,50.10
2019-02-23T12:55:20.680Z,43.80
2019-02-23T13:05:26.316Z,43.70
2019-02-23T13:15:37.557Z,43.00
2019-02-23T13:25:54.794Z,44.40
2019-02-23T13:36:09.276Z,42.30
2019-02-23T13:46:23.252Z,45.00
2019-02-23T13:56:47.077Z,40.80
2019-02-23T14:06:55.522Z,42.20
2019-02-23T14:17:12.980Z,42.10
2019-02-23T14:27:40.001Z,42.70
2019-02-23T14:37:57.536Z,42.60
2019-02-23T14:48:21.185Z,41.80
2019-02-23T14:58:41.595Z,43.30
2019-02-23T15:08:53.108Z,43.90
2019-02-23T15:19:18.095Z,42.30
2019-02-23T15:29:37.592Z,45.50
2019-02-23T15:39:48.909Z,44.70
2019-02-23T15:49:55.878Z,46.20
2019-02-23T16:00:01.937Z,46.40
2019-02-23T16:10:08.147Z,46.40
2019-02-23T16:20:13.995Z,48.00
2019-02-23T16:30:19.905Z,48.20
2019-02-23T16:40:25.712Z,48.90
2019-02-23T16:50:31.631Z,48.70
2019-02-23T17:00:37.489Z,48.10
2019-02-23T17:10:43.365Z,48.80
2019-02-23T17:20:50.320Z,47.60
2019-02-23T17:30:56.239Z,48.40
2019-02-23T17:41:02.155Z,48.60
2019-02-23T17:51:09.127Z,47.70
2019-02-23T18:01:14.920Z,48.60
2019-02-23T18:11:20.699Z,48.40
2019-02-23T18:21:26.486Z,49.20
2019-02-23T18:31:32.261Z,57.70
2019-02-23T18:41:38.130Z,59.70
2019-02-23T18:51:44.913Z,61.30
2019-02-23T19:01:50.879Z,60.20
2019-02-23T19:11:56.653Z,62.20
2019-02-23T19:22:02.745Z,60.80
2019-02-23T19:32:08.673Z,61.90
2019-02-23T19:42:14.677Z,61.00
2019-02-23T19:52:21.038Z,60.60
2019-02-23T20:02:27.018Z,62.80
2019-02-23T20:12:32.971Z,66.20
2019-02-23T20:22:38.840Z,63.90
2019-02-23T20:32:44.760Z,64.20
2019-02-23T20:42:50.614Z,60.00
2019-02-23T20:52:56.396Z,66.00
2019-02-23T21:03:02.175Z,68.50
2019-02-23T21:13:08.075Z,69.80
2019-02-23T21:23:13.967Z,69.70
2019-02-23T21:33:19.640Z,73.20
2019-02-23T21:43:25.320Z,71.90
2019-02-23T21:53:31.324Z,67.40
2019-02-23T22:03:37.773Z,70.10
2019-02-23T22:13:43.690Z,72.10
2019-02-23T22:23:49.316Z,71.80
2019-02-23T22:33:54.929Z,77.80
2019-02-23T22:44:00.521Z,74.40
2019-02-23T22:54:07.280Z,76.50
2019-02-23T23:04:12.855Z,76.70
2019-02-23T23:14:18.392Z,77.00
2019-02-23T23:24:23.991Z,80.10
2019-02-23T23:34:29.678Z,81.50
2019-02-23T23:44:35.152Z,77.10
2019-02-23T23:54:40.661Z,74.50
